sensor_id;sensor_type;location;lat;lon;timestamp;pressure;altitude;pressure_sealevel;temperature;humidity
2549;BME280;1284;53.520;10.248;2023-03-04T00:01:46;101278.09;;;6.88;94.83
2549;BME280;1284;53.520;10.248;2023-03-04T00:04:12;101277.16;;;6.93;94.55
2549;BME280;1284;53.520;10.248;2023-03-04T00:06:37;101284.41;;;7.09;94.71
2549;BME280;1284;53.520;10.248;2023-03-04T00:09:03;101274.63;;;7.05;94.83
2549;BME280;1284;53.520;10.248;2023-03-04T00:11:29;101277.94;;;7.27;93.45
2549;BME280;1284;53.520;10.248;2023-03-04T00:13:55;101280.28;;;7.20;93.23
2549;BME280;1284;53.520;10.248;2023-03-04T00:16:21;101279.97;;;7.22;93.59
2549;BME280;1284;53.520;10.248;2023-03-04T00:18:46;101274.75;;;7.34;92.67
2549;BME280;1284;53.520;10.248;2023-03-04T00:21:12;101271.75;;;7.36;92.36
2549;BME280;1284;53.520;10.248;2023-03-04T00:23:37;101277.44;;;7.08;93.30
2549;BME280;1284;53.520;10.248;2023-03-04T00:26:05;101275.88;;;7.07;94.34
2549;BME280;1284;53.520;10.248;2023-03-04T00:28:32;101269.13;;;7.01;93.86
2549;BME280;1284;53.520;10.248;2023-03-04T00:30:57;101269.44;;;7.25;93.65
2549;BME280;1284;53.520;10.248;2023-03-04T00:33:23;101263.09;;;7.30;92.34
2549;BME280;1284;53.520;10.248;2023-03-04T00:35:49;101253.34;;;7.25;92.18
2549;BME280;1284;53.520;10.248;2023-03-04T00:38:14;101265.16;;;7.24;93.02
2549;BME280;1284;53.520;10.248;2023-03-04T00:40:41;101260.91;;;7.32;92.86
2549;BME280;1284;53.520;10.248;2023-03-04T00:43:06;101266.13;;;7.20;93.03
2549;BME280;1284;53.520;10.248;2023-03-04T00:45:32;101259.97;;;7.11;93.32
2549;BME280;1284;53.520;10.248;2023-03-04T00:47:57;101259.63;;;7.38;92.89
2549;BME280;1284;53.520;10.248;2023-03-04T00:50:23;101257.72;;;7.47;91.88
2549;BME280;1284;53.520;10.248;2023-03-04T00:52:48;101251.28;;;7.31;92.80
2549;BME280;1284;53.520;10.248;2023-03-04T00:55:14;101255.56;;;7.23;93.07
2549;BME280;1284;53.520;10.248;2023-03-04T00:57:39;101253.06;;;7.10;93.86
2549;BME280;1284;53.520;10.248;2023-03-04T01:00:05;101247.22;;;7.16;93.64
2549;BME280;1284;53.520;10.248;2023-03-04T01:02:31;101252.41;;;7.13;93.19
2549;BME280;1284;53.520;10.248;2023-03-04T01:04:56;101250.34;;;7.18;92.80
2549;BME280;1284;53.520;10.248;2023-03-04T01:07:22;101241.34;;;7.49;92.04
2549;BME280;1284;53.520;10.248;2023-03-04T01:09:47;101241.53;;;7.35;91.30
2549;BME280;1284;53.520;10.248;2023-03-04T01:12:13;101240.91;;;7.29;92.48
2549;BME280;1284;53.520;10.248;2023-03-04T01:14:38;101229.41;;;7.29;91.75
2549;BME280;1284;53.520;10.248;2023-03-04T01:17:04;101233.81;;;7.34;92.72
2549;BME280;1284;53.520;10.248;2023-03-04T01:19:29;101225.47;;;7.26;91.91
2549;BME280;1284;53.520;10.248;2023-03-04T01:21:54;101234.75;;;7.20;92.06
2549;BME280;1284;53.520;10.248;2023-03-04T01:24:21;101218.97;;;7.45;91.27
2549;BME280;1284;53.520;10.248;2023-03-04T01:26:46;101229.22;;;7.34;91.60
2549;BME280;1284;53.520;10.248;2023-03-04T01:29:12;101223.25;;;7.37;91.56
2549;BME280;1284;53.520;10.248;2023-03-04T01:31:39;101215.63;;;7.56;90.96
2549;BME280;1284;53.520;10.248;2023-03-04T01:34:04;101211.88;;;7.40;91.11
2549;BME280;1284;53.520;10.248;2023-03-04T01:36:30;101204.28;;;7.51;90.89
2549;BME280;1284;53.520;10.248;2023-03-04T01:38:55;101206.59;;;7.61;90.23
2549;BME280;1284;53.520;10.248;2023-03-04T01:41:24;101212.81;;;7.53;90.21
2549;BME280;1284;53.520;10.248;2023-03-04T01:43:50;101200.72;;;7.21;92.08
2549;BME280;1284;53.520;10.248;2023-03-04T01:46:16;101197.44;;;7.07;92.29
2549;BME280;1284;53.520;10.248;2023-03-04T01:48:43;101205.75;;;7.31;91.66
2549;BME280;1284;53.520;10.248;2023-03-04T01:51:14;101193.44;;;7.39;91.00
2549;BME280;1284;53.520;10.248;2023-03-04T01:53:41;101181.78;;;7.35;91.09
2549;BME280;1284;53.520;10.248;2023-03-04T01:56:18;101191.09;;;7.37;91.90
2549;BME280;1284;53.520;10.248;2023-03-04T01:58:44;101182.25;;;7.45;91.29
2549;BME280;1284;53.520;10.248;2023-03-04T02:01:11;101176.25;;;7.48;90.86
2549;BME280;1284;53.520;10.248;2023-03-04T02:03:37;101173.69;;;7.52;90.86
2549;BME280;1284;53.520;10.248;2023-03-04T02:06:03;101171.69;;;7.40;91.16
2549;BME280;1284;53.520;10.248;2023-03-04T02:08:29;101170.63;;;7.32;91.16
2549;BME280;1284;53.520;10.248;2023-03-04T02:10:55;101169.94;;;7.53;90.64
2549;BME280;1284;53.520;10.248;2023-03-04T02:13:21;101171.03;;;7.52;91.36
2549;BME280;1284;53.520;10.248;2023-03-04T02:15:47;101160.50;;;7.38;91.10
2549;BME280;1284;53.520;10.248;2023-03-04T02:18:19;101166.19;;;7.45;91.54
2549;BME280;1284;53.520;10.248;2023-03-04T02:20:51;101161.44;;;7.51;91.41
2549;BME280;1284;53.520;10.248;2023-03-04T02:23:22;101163.50;;;7.74;90.38
2549;BME280;1284;53.520;10.248;2023-03-04T02:28:30;101145.50;;;7.46;91.26
2549;BME280;1284;53.520;10.248;2023-03-04T02:30:56;101141.84;;;7.59;90.89
2549;BME280;1284;53.520;10.248;2023-03-04T02:33:21;101143.75;;;7.50;90.91
2549;BME280;1284;53.520;10.248;2023-03-04T02:35:47;101142.69;;;7.42;91.49
2549;BME280;1284;53.520;10.248;2023-03-04T02:38:13;101141.06;;;7.50;92.25
2549;BME280;1284;53.520;10.248;2023-03-04T02:40:41;101134.94;;;7.49;91.67
2549;BME280;1284;53.520;10.248;2023-03-04T02:43:10;101134.91;;;7.58;91.18
2549;BME280;1284;53.520;10.248;2023-03-04T02:45:46;101132.97;;;7.67;91.44
2549;BME280;1284;53.520;10.248;2023-03-04T02:48:13;101134.03;;;7.74;91.28
2549;BME280;1284;53.520;10.248;2023-03-04T02:50:43;101130.94;;;7.64;90.74
2549;BME280;1284;53.520;10.248;2023-03-04T02:53:09;101120.44;;;7.50;91.68
2549;BME280;1284;53.520;10.248;2023-03-04T02:58:01;101123.47;;;7.40;93.65
2549;BME280;1284;53.520;10.248;2023-03-04T03:00:27;101125.47;;;7.52;93.45
2549;BME280;1284;53.520;10.248;2023-03-04T03:02:53;101129.28;;;7.42;93.25
2549;BME280;1284;53.520;10.248;2023-03-04T03:05:26;101123.91;;;7.51;93.43
2549;BME280;1284;53.520;10.248;2023-03-04T03:07:53;101113.72;;;7.65;92.52
2549;BME280;1284;53.520;10.248;2023-03-04T03:10:19;101118.00;;;7.66;92.61
2549;BME280;1284;53.520;10.248;2023-03-04T03:12:46;101107.63;;;7.56;92.70
2549;BME280;1284;53.520;10.248;2023-03-04T03:15:11;101117.94;;;7.74;92.70
2549;BME280;1284;53.520;10.248;2023-03-04T03:17:37;101112.63;;;7.66;93.09
2549;BME280;1284;53.520;10.248;2023-03-04T03:20:03;101114.41;;;7.53;93.96
2549;BME280;1284;53.520;10.248;2023-03-04T03:22:29;101106.53;;;7.57;93.98
2549;BME280;1284;53.520;10.248;2023-03-04T03:24:55;101112.25;;;7.47;94.65
2549;BME280;1284;53.520;10.248;2023-03-04T03:27:20;101101.81;;;7.54;95.14
2549;BME280;1284;53.520;10.248;2023-03-04T03:29:45;101104.09;;;7.43;94.94
2549;BME280;1284;53.520;10.248;2023-03-04T03:32:11;101099.69;;;7.39;94.65
2549;BME280;1284;53.520;10.248;2023-03-04T03:34:36;101098.94;;;7.29;96.39
2549;BME280;1284;53.520;10.248;2023-03-04T03:37:02;101102.63;;;7.46;95.97
2549;BME280;1284;53.520;10.248;2023-03-04T03:39:27;101103.69;;;7.53;96.09
2549;BME280;1284;53.520;10.248;2023-03-04T03:41:53;101097.25;;;7.54;95.86
2549;BME280;1284;53.520;10.248;2023-03-04T03:44:18;101098.41;;;7.74;95.30
2549;BME280;1284;53.520;10.248;2023-03-04T03:46:44;101094.28;;;7.47;95.46
2549;BME280;1284;53.520;10.248;2023-03-04T03:49:11;101089.59;;;7.36;96.01
2549;BME280;1284;53.520;10.248;2023-03-04T03:51:36;101087.78;;;7.27;96.32
2549;BME280;1284;53.520;10.248;2023-03-04T03:54:02;101085.47;;;7.47;95.88
2549;BME280;1284;53.520;10.248;2023-03-04T03:56:27;101082.59;;;7.52;94.56
2549;BME280;1284;53.520;10.248;2023-03-04T03:58:53;101081.88;;;7.72;94.55
2549;BME280;1284;53.520;10.248;2023-03-04T04:01:19;101088.78;;;7.73;93.86
2549;BME280;1284;53.520;10.248;2023-03-04T04:03:44;101086.53;;;7.83;92.88
2549;BME280;1284;53.520;10.248;2023-03-04T04:06:10;101086.19;;;7.56;93.68
2549;BME280;1284;53.520;10.248;2023-03-04T04:08:35;101077.44;;;7.47;94.16
2549;BME280;1284;53.520;10.248;2023-03-04T04:11:01;101087.03;;;7.77;93.20
2549;BME280;1284;53.520;10.248;2023-03-04T04:13:26;101087.69;;;7.74;93.51
2549;BME280;1284;53.520;10.248;2023-03-04T04:15:52;101070.91;;;7.85;93.35
2549;BME280;1284;53.520;10.248;2023-03-04T04:18:18;101077.00;;;7.65;94.65
2549;BME280;1284;53.520;10.248;2023-03-04T04:20:43;101086.22;;;7.47;96.03
2549;BME280;1284;53.520;10.248;2023-03-04T04:23:09;101079.06;;;7.89;93.61
2549;BME280;1284;53.520;10.248;2023-03-04T04:25:35;101078.66;;;7.49;94.22
2549;BME280;1284;53.520;10.248;2023-03-04T04:28:00;101070.78;;;7.53;94.99
2549;BME280;1284;53.520;10.248;2023-03-04T04:30:26;101076.53;;;7.63;94.25
2549;BME280;1284;53.520;10.248;2023-03-04T04:32:51;101079.78;;;7.77;94.25
2549;BME280;1284;53.520;10.248;2023-03-04T04:35:17;101071.47;;;7.70;93.19
2549;BME280;1284;53.520;10.248;2023-03-04T04:37:42;101077.56;;;7.79;93.11
2549;BME280;1284;53.520;10.248;2023-03-04T04:40:08;101073.50;;;7.94;92.87
2549;BME280;1284;53.520;10.248;2023-03-04T04:42:34;101071.47;;;7.91;92.06
2549;BME280;1284;53.520;10.248;2023-03-04T04:45:00;101057.28;;;7.70;92.53
2549;BME280;1284;53.520;10.248;2023-03-04T04:47:25;101067.13;;;7.57;93.14
2549;BME280;1284;53.520;10.248;2023-03-04T04:49:51;101059.81;;;7.66;93.04
2549;BME280;1284;53.520;10.248;2023-03-04T04:52:16;101064.13;;;7.59;91.98
2549;BME280;1284;53.520;10.248;2023-03-04T04:54:42;101046.81;;;7.56;91.34
2549;BME280;1284;53.520;10.248;2023-03-04T04:57:07;101063.56;;;7.74;91.45
2549;BME280;1284;53.520;10.248;2023-03-04T04:59:32;101059.13;;;7.78;89.91
2549;BME280;1284;53.520;10.248;2023-03-04T05:01:58;101059.59;;;7.80;87.96
2549;BME280;1284;53.520;10.248;2023-03-04T05:04:24;101054.94;;;7.39;87.37
2549;BME280;1284;53.520;10.248;2023-03-04T05:06:49;101049.63;;;7.22;87.05
2549;BME280;1284;53.520;10.248;2023-03-04T05:09:15;101050.91;;;7.24;86.55
2549;BME280;1284;53.520;10.248;2023-03-04T05:11:40;101056.50;;;7.40;85.49
2549;BME280;1284;53.520;10.248;2023-03-04T05:14:05;101055.41;;;7.41;83.89
2549;BME280;1284;53.520;10.248;2023-03-04T05:16:31;101056.44;;;7.19;84.04
2549;BME280;1284;53.520;10.248;2023-03-04T05:18:57;101056.13;;;7.50;83.58
2549;BME280;1284;53.520;10.248;2023-03-04T05:21:23;101051.34;;;7.35;83.00
2549;BME280;1284;53.520;10.248;2023-03-04T05:23:48;101059.72;;;7.25;83.84
2549;BME280;1284;53.520;10.248;2023-03-04T05:26:15;101058.38;;;7.40;83.42
2549;BME280;1284;53.520;10.248;2023-03-04T05:28:42;101055.56;;;7.36;83.72
2549;BME280;1284;53.520;10.248;2023-03-04T05:31:08;101058.84;;;7.42;83.45
2549;BME280;1284;53.520;10.248;2023-03-04T05:33:33;101060.91;;;7.45;83.49
2549;BME280;1284;53.520;10.248;2023-03-04T05:35:59;101062.09;;;7.56;83.54
2549;BME280;1284;53.520;10.248;2023-03-04T05:38:24;101063.84;;;7.52;83.14
2549;BME280;1284;53.520;10.248;2023-03-04T05:40:58;101061.13;;;7.60;83.19
2549;BME280;1284;53.520;10.248;2023-03-04T05:43:25;101063.00;;;7.60;83.23
2549;BME280;1284;53.520;10.248;2023-03-04T05:45:51;101062.88;;;7.56;83.50
2549;BME280;1284;53.520;10.248;2023-03-04T05:48:17;101061.88;;;7.61;83.43
2549;BME280;1284;53.520;10.248;2023-03-04T05:50:43;101060.19;;;7.56;83.32
2549;BME280;1284;53.520;10.248;2023-03-04T05:53:08;101065.25;;;7.49;83.90
2549;BME280;1284;53.520;10.248;2023-03-04T05:55:33;101067.00;;;7.74;83.48
2549;BME280;1284;53.520;10.248;2023-03-04T05:57:59;101073.22;;;7.66;84.09
2549;BME280;1284;53.520;10.248;2023-03-04T06:00:27;101068.78;;;7.41;85.32
2549;BME280;1284;53.520;10.248;2023-03-04T06:02:53;101067.28;;;7.32;85.27
2549;BME280;1284;53.520;10.248;2023-03-04T06:05:19;101066.88;;;7.42;85.37
2549;BME280;1284;53.520;10.248;2023-03-04T06:07:45;101075.13;;;7.66;85.05
2549;BME280;1284;53.520;10.248;2023-03-04T06:10:13;101074.28;;;7.74;84.06
2549;BME280;1284;53.520;10.248;2023-03-04T06:12:40;101067.06;;;7.66;84.21
2549;BME280;1284;53.520;10.248;2023-03-04T06:15:06;101066.41;;;7.69;84.65
2549;BME280;1284;53.520;10.248;2023-03-04T06:17:34;101075.13;;;7.66;84.18
2549;BME280;1284;53.520;10.248;2023-03-04T06:19:59;101067.56;;;7.59;84.24
2549;BME280;1284;53.520;10.248;2023-03-04T06:22:25;101063.19;;;7.25;85.05
2549;BME280;1284;53.520;10.248;2023-03-04T06:24:50;101072.31;;;7.24;86.64
2549;BME280;1284;53.520;10.248;2023-03-04T06:27:16;101070.50;;;7.46;86.53
2549;BME280;1284;53.520;10.248;2023-03-04T06:29:41;101075.22;;;7.49;86.41
2549;BME280;1284;53.520;10.248;2023-03-04T06:32:07;101074.38;;;7.57;86.26
2549;BME280;1284;53.520;10.248;2023-03-04T06:34:32;101076.38;;;7.39;85.00
2549;BME280;1284;53.520;10.248;2023-03-04T06:36:58;101079.50;;;7.41;85.12
2549;BME280;1284;53.520;10.248;2023-03-04T06:39:24;101084.63;;;7.25;85.09
2549;BME280;1284;53.520;10.248;2023-03-04T06:41:50;101081.75;;;7.30;84.94
2549;BME280;1284;53.520;10.248;2023-03-04T06:44:15;101089.50;;;7.23;84.14
2549;BME280;1284;53.520;10.248;2023-03-04T06:46:41;101092.75;;;7.38;83.22
2549;BME280;1284;53.520;10.248;2023-03-04T06:49:06;101096.88;;;7.35;82.68
2549;BME280;1284;53.520;10.248;2023-03-04T06:51:32;101085.94;;;7.49;80.79
2549;BME280;1284;53.520;10.248;2023-03-04T06:53:57;101092.66;;;7.25;80.29
2549;BME280;1284;53.520;10.248;2023-03-04T06:56:22;101095.69;;;7.15;80.17
2549;BME280;1284;53.520;10.248;2023-03-04T06:58:48;101094.56;;;7.16;80.01
2549;BME280;1284;53.520;10.248;2023-03-04T07:01:14;101105.28;;;7.16;80.28
2549;BME280;1284;53.520;10.248;2023-03-04T07:03:40;101107.78;;;7.21;80.06
2549;BME280;1284;53.520;10.248;2023-03-04T07:06:06;101108.66;;;7.43;79.20
2549;BME280;1284;53.520;10.248;2023-03-04T07:08:33;101095.41;;;7.38;79.31
2549;BME280;1284;53.520;10.248;2023-03-04T07:10:59;101101.63;;;7.29;79.66
2549;BME280;1284;53.520;10.248;2023-03-04T07:13:24;101104.13;;;7.35;79.06
2549;BME280;1284;53.520;10.248;2023-03-04T07:15:50;101097.50;;;7.32;79.57
2549;BME280;1284;53.520;10.248;2023-03-04T07:18:15;101104.38;;;7.50;79.06
2549;BME280;1284;53.520;10.248;2023-03-04T07:20:40;101105.84;;;7.39;79.86
2549;BME280;1284;53.520;10.248;2023-03-04T07:23:06;101101.75;;;7.33;80.30
2549;BME280;1284;53.520;10.248;2023-03-04T07:25:31;101106.47;;;7.36;79.95
2549;BME280;1284;53.520;10.248;2023-03-04T07:27:57;101103.19;;;7.30;79.80
2549;BME280;1284;53.520;10.248;2023-03-04T07:30:22;101104.31;;;7.21;79.93
2549;BME280;1284;53.520;10.248;2023-03-04T07:32:48;101106.88;;;7.17;80.48
2549;BME280;1284;53.520;10.248;2023-03-04T07:35:13;101103.19;;;7.22;80.81
2549;BME280;1284;53.520;10.248;2023-03-04T07:37:39;101107.94;;;7.16;80.76
2549;BME280;1284;53.520;10.248;2023-03-04T07:40:06;101117.31;;;7.40;80.77
2549;BME280;1284;53.520;10.248;2023-03-04T07:42:34;101114.00;;;7.43;78.48
2549;BME280;1284;53.520;10.248;2023-03-04T07:45:07;101098.31;;;7.24;77.89
2549;BME280;1284;53.520;10.248;2023-03-04T07:47:34;101115.19;;;7.24;77.82
2549;BME280;1284;53.520;10.248;2023-03-04T07:49:59;101117.78;;;7.42;77.67
2549;BME280;1284;53.520;10.248;2023-03-04T07:52:25;101115.50;;;7.23;77.08
2549;BME280;1284;53.520;10.248;2023-03-04T07:54:50;101121.47;;;7.28;77.57
2549;BME280;1284;53.520;10.248;2023-03-04T07:57:16;101123.66;;;7.35;77.77
2549;BME280;1284;53.520;10.248;2023-03-04T07:59:41;101127.69;;;7.50;76.79
2549;BME280;1284;53.520;10.248;2023-03-04T08:02:08;101125.31;;;7.48;77.23
2549;BME280;1284;53.520;10.248;2023-03-04T08:04:34;101125.75;;;7.12;76.47
2549;BME280;1284;53.520;10.248;2023-03-04T08:07:00;101130.81;;;7.14;75.58
2549;BME280;1284;53.520;10.248;2023-03-04T08:09:25;101122.13;;;7.25;76.30
2549;BME280;1284;53.520;10.248;2023-03-04T08:11:51;101129.34;;;7.34;75.69
2549;BME280;1284;53.520;10.248;2023-03-04T08:14:16;101128.56;;;7.33;75.09
2549;BME280;1284;53.520;10.248;2023-03-04T08:16:41;101136.41;;;7.38;74.75
2549;BME280;1284;53.520;10.248;2023-03-04T08:19:07;101139.72;;;7.35;74.79
2549;BME280;1284;53.520;10.248;2023-03-04T08:21:33;101132.97;;;7.29;75.02
2549;BME280;1284;53.520;10.248;2023-03-04T08:24:00;101132.50;;;7.27;74.55
2549;BME280;1284;53.520;10.248;2023-03-04T08:26:32;101130.88;;;7.43;74.75
2549;BME280;1284;53.520;10.248;2023-03-04T08:29:00;101132.84;;;7.08;74.82
2549;BME280;1284;53.520;10.248;2023-03-04T08:31:26;101139.13;;;7.29;73.59
2549;BME280;1284;53.520;10.248;2023-03-04T08:33:51;101151.38;;;7.39;73.02
2549;BME280;1284;53.520;10.248;2023-03-04T08:36:18;101149.84;;;7.21;73.57
2549;BME280;1284;53.520;10.248;2023-03-04T08:38:43;101151.13;;;7.23;73.83
2549;BME280;1284;53.520;10.248;2023-03-04T08:41:09;101149.88;;;7.12;74.60
2549;BME280;1284;53.520;10.248;2023-03-04T08:43:35;101146.72;;;7.10;75.21
2549;BME280;1284;53.520;10.248;2023-03-04T08:46:01;101140.41;;;7.23;75.19
2549;BME280;1284;53.520;10.248;2023-03-04T08:48:27;101142.69;;;7.42;74.71
2549;BME280;1284;53.520;10.248;2023-03-04T08:50:53;101151.53;;;7.43;74.01
2549;BME280;1284;53.520;10.248;2023-03-04T08:53:19;101150.31;;;7.61;73.83
2549;BME280;1284;53.520;10.248;2023-03-04T08:55:45;101146.56;;;7.62;72.76
2549;BME280;1284;53.520;10.248;2023-03-04T08:58:12;101145.19;;;7.47;73.44
2549;BME280;1284;53.520;10.248;2023-03-04T09:00:41;101143.75;;;7.50;73.03
2549;BME280;1284;53.520;10.248;2023-03-04T09:03:07;101143.34;;;7.39;74.45
2549;BME280;1284;53.520;10.248;2023-03-04T09:05:33;101142.81;;;7.46;74.09
2549;BME280;1284;53.520;10.248;2023-03-04T09:07:58;101147.00;;;7.64;73.09
2549;BME280;1284;53.520;10.248;2023-03-04T09:10:24;101143.44;;;7.51;73.07
2549;BME280;1284;53.520;10.248;2023-03-04T09:12:50;101149.16;;;7.41;74.01
2549;BME280;1284;53.520;10.248;2023-03-04T09:15:16;101142.81;;;7.46;74.12
2549;BME280;1284;53.520;10.248;2023-03-04T09:17:41;101139.59;;;7.61;73.24
2549;BME280;1284;53.520;10.248;2023-03-04T09:20:10;101147.22;;;7.59;73.03
2549;BME280;1284;53.520;10.248;2023-03-04T09:22:37;101147.50;;;7.57;73.54
2549;BME280;1284;53.520;10.248;2023-03-04T09:25:03;101152.78;;;7.74;73.10
2549;BME280;1284;53.520;10.248;2023-03-04T09:27:29;101156.63;;;7.94;71.98
2549;BME280;1284;53.520;10.248;2023-03-04T09:29:55;101142.69;;;7.80;70.79
2549;BME280;1284;53.520;10.248;2023-03-04T09:32:20;101145.94;;;7.56;70.93
2549;BME280;1284;53.520;10.248;2023-03-04T09:34:46;101154.25;;;7.63;71.08
2549;BME280;1284;53.520;10.248;2023-03-04T09:37:14;101135.09;;;7.53;71.37
2549;BME280;1284;53.520;10.248;2023-03-04T09:39:40;101150.13;;;7.37;71.80
2549;BME280;1284;53.520;10.248;2023-03-04T09:42:08;101138.00;;;7.30;70.75
2549;BME280;1284;53.520;10.248;2023-03-04T09:44:41;101142.09;;;7.28;71.25
2549;BME280;1284;53.520;10.248;2023-03-04T09:47:14;101150.88;;;7.46;70.90
2549;BME280;1284;53.520;10.248;2023-03-04T09:49:43;101155.41;;;7.54;71.17
2549;BME280;1284;53.520;10.248;2023-03-04T09:58:04;101149.78;;;8.05;70.00
2549;BME280;1284;53.520;10.248;2023-03-04T10:00:36;101150.88;;;8.04;69.48
2549;BME280;1284;53.520;10.248;2023-03-04T10:08:39;101151.16;;;8.11;67.75
2549;BME280;1284;53.520;10.248;2023-03-04T10:11:38;101151.25;;;7.94;66.90
2549;BME280;1284;53.520;10.248;2023-03-04T10:16:57;101149.00;;;7.75;67.71
2549;BME280;1284;53.520;10.248;2023-03-04T10:19:32;101134.66;;;7.80;67.92
2549;BME280;1284;53.520;10.248;2023-03-04T10:22:15;101130.41;;;7.99;67.20
2549;BME280;1284;53.520;10.248;2023-03-04T10:24:44;101142.22;;;8.07;66.89
2549;BME280;1284;53.520;10.248;2023-03-04T10:27:14;101145.34;;;8.09;66.70
2549;BME280;1284;53.520;10.248;2023-03-04T10:29:41;101148.34;;;8.07;66.75
2549;BME280;1284;53.520;10.248;2023-03-04T10:32:19;101148.88;;;8.21;65.98
2549;BME280;1284;53.520;10.248;2023-03-04T10:34:45;101130.16;;;8.13;66.28
2549;BME280;1284;53.520;10.248;2023-03-04T10:37:10;101141.50;;;8.18;66.18
2549;BME280;1284;53.520;10.248;2023-03-04T10:39:39;101157.41;;;8.44;64.98
2549;BME280;1284;53.520;10.248;2023-03-04T10:42:21;101145.19;;;8.55;64.76
2549;BME280;1284;53.520;10.248;2023-03-04T10:44:52;101159.78;;;8.66;63.94
2549;BME280;1284;53.520;10.248;2023-03-04T10:47:22;101157.16;;;8.58;63.33
2549;BME280;1284;53.520;10.248;2023-03-04T10:49:56;101156.25;;;8.54;64.01
2549;BME280;1284;53.520;10.248;2023-03-04T10:52:38;101154.59;;;8.41;64.29
2549;BME280;1284;53.520;10.248;2023-03-04T10:55:14;101156.25;;;8.54;64.67
2549;BME280;1284;53.520;10.248;2023-03-04T10:57:42;101161.56;;;8.62;64.43
2549;BME280;1284;53.520;10.248;2023-03-04T11:02:47;101153.19;;;8.43;64.61
2549;BME280;1284;53.520;10.248;2023-03-04T11:05:23;101146.03;;;8.47;64.63
2549;BME280;1284;53.520;10.248;2023-03-04T11:08:02;101151.09;;;8.19;65.13
2549;BME280;1284;53.520;10.248;2023-03-04T11:10:30;101145.78;;;8.40;65.30
2549;BME280;1284;53.520;10.248;2023-03-04T11:18:16;101149.50;;;8.68;64.21
2549;BME280;1284;53.520;10.248;2023-03-04T11:20:46;101139.84;;;8.67;64.41
2549;BME280;1284;53.520;10.248;2023-03-04T11:27:00;101150.50;;;8.43;66.09
2549;BME280;1284;53.520;10.248;2023-03-04T11:29:45;101143.63;;;8.54;65.58
2549;BME280;1284;53.520;10.248;2023-03-04T11:32:27;101138.94;;;8.63;64.21
2549;BME280;1284;53.520;10.248;2023-03-04T11:37:32;101134.50;;;8.67;63.75
2549;BME280;1284;53.520;10.248;2023-03-04T11:40:11;101133.78;;;8.91;62.27
2549;BME280;1284;53.520;10.248;2023-03-04T11:42:51;101139.00;;;8.75;62.45
2549;BME280;1284;53.520;10.248;2023-03-04T11:45:42;101135.97;;;8.77;62.95
2549;BME280;1284;53.520;10.248;2023-03-04T11:48:28;101132.47;;;8.97;61.69
2549;BME280;1284;53.520;10.248;2023-03-04T11:53:41;101128.69;;;8.98;60.87
2549;BME280;1284;53.520;10.248;2023-03-04T11:56:15;101124.81;;;8.87;59.63
2549;BME280;1284;53.520;10.248;2023-03-04T12:17:29;101111.94;;;9.25;58.61
2549;BME280;1284;53.520;10.248;2023-03-04T12:42:05;101095.25;;;9.32;57.75
2549;BME280;1284;53.520;10.248;2023-03-04T12:44:57;101088.66;;;9.41;57.59
2549;BME280;1284;53.520;10.248;2023-03-04T12:47:51;101075.13;;;9.50;57.54
2549;BME280;1284;53.520;10.248;2023-03-04T12:50:30;101078.34;;;9.43;56.72
2549;BME280;1284;53.520;10.248;2023-03-04T12:55:33;101083.38;;;9.69;56.31
2549;BME280;1284;53.520;10.248;2023-03-04T12:57:59;101084.03;;;9.66;56.49
2549;BME280;1284;53.520;10.248;2023-03-04T13:16:41;101065.47;;;9.61;57.04
2549;BME280;1284;53.520;10.248;2023-03-04T13:19:43;101067.25;;;9.57;56.88
2549;BME280;1284;53.520;10.248;2023-03-04T13:24:51;101070.38;;;9.47;58.00
2549;BME280;1284;53.520;10.248;2023-03-04T13:44:28;101070.50;;;9.74;56.99
2549;BME280;1284;53.520;10.248;2023-03-04T13:46:49;101066.06;;;10.06;56.33
2549;BME280;1284;53.520;10.248;2023-03-04T13:49:20;101066.81;;;9.67;57.44
2549;BME280;1284;53.520;10.248;2023-03-04T13:51:47;101069.69;;;9.74;57.61
2549;BME280;1284;53.520;10.248;2023-03-04T13:54:32;101070.19;;;9.64;57.72
2549;BME280;1284;53.520;10.248;2023-03-04T14:02:33;101063.56;;;9.49;57.88
2549;BME280;1284;53.520;10.248;2023-03-04T14:05:00;101063.47;;;9.34;58.10
2549;BME280;1284;53.520;10.248;2023-03-04T14:12:43;101065.34;;;9.69;57.09
2549;BME280;1284;53.520;10.248;2023-03-04T14:17:39;101063.91;;;9.24;57.34
2549;BME280;1284;53.520;10.248;2023-03-04T14:20:36;101071.06;;;9.44;57.09
2549;BME280;1284;53.520;10.248;2023-03-04T14:23:05;101066.50;;;9.44;57.73
2549;BME280;1284;53.520;10.248;2023-03-04T14:25:46;101070.97;;;9.52;56.48
2549;BME280;1284;53.520;10.248;2023-03-04T14:28:14;101048.81;;;9.19;56.80
2549;BME280;1284;53.520;10.248;2023-03-04T14:30:54;101070.88;;;8.80;58.29
2549;BME280;1284;53.520;10.248;2023-03-04T14:33:23;101057.16;;;8.93;57.45
2549;BME280;1284;53.520;10.248;2023-03-04T14:35:52;101054.50;;;9.30;56.41
2549;BME280;1284;53.520;10.248;2023-03-04T14:38:29;101047.78;;;9.36;55.73
2549;BME280;1284;53.520;10.248;2023-03-04T14:41:02;101058.41;;;9.08;56.77
2549;BME280;1284;53.520;10.248;2023-03-04T14:43:36;101056.66;;;8.79;57.74
2549;BME280;1284;53.520;10.248;2023-03-04T14:46:02;101057.47;;;8.80;58.04
2549;BME280;1284;53.520;10.248;2023-03-04T14:48:31;101062.00;;;9.00;57.48
2549;BME280;1284;53.520;10.248;2023-03-04T14:50:59;101056.94;;;8.86;57.13
2549;BME280;1284;53.520;10.248;2023-03-04T14:53:26;101057.66;;;8.63;58.08
2549;BME280;1284;53.520;10.248;2023-03-04T14:56:03;101063.38;;;8.73;58.47
2549;BME280;1284;53.520;10.248;2023-03-04T14:58:38;101055.75;;;8.75;58.56
2549;BME280;1284;53.520;10.248;2023-03-04T15:03:39;101049.66;;;8.99;58.47
2549;BME280;1284;53.520;10.248;2023-03-04T15:06:28;101056.94;;;8.98;57.77
2549;BME280;1284;53.520;10.248;2023-03-04T15:11:23;101050.00;;;8.97;57.31
2549;BME280;1284;53.520;10.248;2023-03-04T15:13:52;101051.16;;;9.21;56.78
2549;BME280;1284;53.520;10.248;2023-03-04T15:16:21;101060.94;;;8.92;57.26
2549;BME280;1284;53.520;10.248;2023-03-04T15:19:05;101055.53;;;8.68;58.71
2549;BME280;1284;53.520;10.248;2023-03-04T15:21:47;101052.56;;;8.49;59.64
2549;BME280;1284;53.520;10.248;2023-03-04T15:24:12;101055.16;;;8.58;59.97
2549;BME280;1284;53.520;10.248;2023-03-04T15:29:17;101050.16;;;8.68;59.91
2549;BME280;1284;53.520;10.248;2023-03-04T15:31:44;101058.72;;;8.82;59.63